Time;durP1;ratioP1;P1;durP2;ratioP2;P2;SDS_P1;SDS_P2;PMS_P1;PMS_P2;Temp;Humidity;BMP_temperature;BMP_pressure;BME280_temperature;BME280_humidity;BME280_pressure;Samples;Min_cycle;Max_cycle;Signal;HPM_P1;HPM_P2
2022/05/09 00:01:57;;;;;;;8.20;3.72;;;;;;;10.15;59.51;102526.97;4952583;28;20031;-89
2022/05/09 00:04:22;;;;;;;7.32;3.60;;;;;;;10.14;59.79;102536.72;4955352;28;20031;-89
2022/05/09 00:06:49;;;;;;;10.98;4.00;;;;;;;10.09;59.98;102528.00;4954368;28;20354;-89
2022/05/09 00:09:15;;;;;;;11.50;4.85;;;;;;;10.06;59.92;102521.84;4950562;28;20397;-89
2022/05/09 00:11:41;;;;;;;9.90;4.25;;;;;;;10.01;60.29;102527.28;4949923;28;20084;-89
2022/05/09 00:14:07;;;;;;;8.15;3.72;;;;;;;9.90;60.80;102527.50;4956230;28;20117;-89
2022/05/09 00:16:35;;;;;;;9.57;3.95;;;;;;;9.87;60.75;102510.75;4982361;28;20554;-89
2022/05/09 00:19:05;;;;;;;13.25;3.70;;;;;;;9.81;61.23;102513.53;4973678;28;20377;-88
2022/05/09 00:21:36;;;;;;;9.52;3.80;;;;;;;9.80;61.03;102511.78;4964833;28;20084;-89
2022/05/09 00:24:02;;;;;;;11.23;3.85;;;;;;;9.78;61.11;102508.25;4966376;28;20023;-89
2022/05/09 00:26:33;;;;;;;11.32;4.43;;;;;;;9.78;61.46;102508.25;4965010;28;20042;-90
2022/05/09 00:29:00;;;;;;;11.40;3.85;;;;;;;9.76;61.43;102510.97;4956913;28;20027;-89
2022/05/09 00:31:26;;;;;;;12.15;4.20;;;;;;;9.74;61.86;102510.13;4969119;28;20647;-89
2022/05/09 00:33:51;;;;;;;10.38;4.25;;;;;;;9.69;61.88;102507.53;4968105;28;20026;-90
2022/05/09 00:36:17;;;;;;;7.93;3.80;;;;;;;9.59;61.96;102497.16;4968275;28;20502;-90
2022/05/09 00:38:44;;;;;;;9.75;3.70;;;;;;;9.65;62.37;102504.97;4974866;28;20077;-90
2022/05/09 00:43:54;;;;;;;;;;;;;;;9.64;59.93;102497.91;4966558;28;20109;-90
2022/05/09 00:46:20;;;;;;;11.02;4.40;;;;;;;9.53;62.45;102510.53;4955097;28;19957;-91
2022/05/09 00:48:45;;;;;;;12.82;4.53;;;;;;;9.48;62.60;102506.19;4968141;28;20061;-90
2022/05/09 00:51:12;;;;;;;16.40;3.85;;;;;;;9.50;62.93;102508.84;4971036;28;20035;-89
2022/05/09 00:53:38;;;;;;;9.77;4.03;;;;;;;9.45;62.88;102503.63;4975803;28;20515;-90
2022/05/09 00:56:10;;;;;;;11.80;3.85;;;;;;;9.40;63.29;102509.91;4970854;28;20101;-90
2022/05/09 00:58:43;;;;;;;9.27;3.80;;;;;;;9.33;63.28;102506.50;4983959;28;20066;-90
2022/05/09 01:01:10;;;;;;;10.90;4.47;;;;;;;9.28;63.72;102512.81;4956980;28;20034;-90
2022/05/09 01:03:46;;;;;;;9.38;3.88;;;;;;;9.28;63.23;102504.84;4974417;28;20395;-90
2022/05/09 01:06:11;;;;;;;10.05;3.95;;;;;;;9.23;63.99;102500.47;4982635;28;20031;-91
2022/05/09 01:08:37;;;;;;;13.43;4.43;;;;;;;9.26;63.73;102502.22;4964861;28;20366;-90
2022/05/09 01:11:06;;;;;;;13.02;4.13;;;;;;;9.15;64.40;102493.56;4965314;28;20047;-90
2022/05/09 01:13:36;;;;;;;10.18;4.35;;;;;;;9.13;64.45;102498.91;4982668;28;20080;-89
2022/05/09 01:16:03;;;;;;;8.40;3.88;;;;;;;9.15;64.49;102491.78;4980063;28;20400;-89
2022/05/09 01:18:28;;;;;;;8.55;4.03;;;;;;;9.09;64.44;102483.06;4957035;28;20230;-89
2022/05/09 01:20:54;;;;;;;6.88;3.60;;;;;;;9.06;64.39;102489.28;4974324;28;20523;-89
2022/05/09 01:23:20;;;;;;;10.48;4.18;;;;;;;9.07;64.85;102487.50;4968471;28;20038;-89
2022/05/09 01:25:45;;;;;;;14.60;4.38;;;;;;;8.98;65.03;102483.25;4973675;28;20030;-89
2022/05/09 01:28:11;;;;;;;13.25;4.22;;;;;;;8.95;65.25;102481.53;4974336;28;20374;-89
2022/05/09 01:30:52;;;;;;;8.52;4.13;;;;;;;8.93;64.82;102485.97;4969592;28;20029;-90
2022/05/09 01:33:23;;;;;;;10.27;4.28;;;;;;;8.88;65.70;102487.84;4970963;28;20031;-91
2022/05/09 01:36:01;;;;;;;13.35;4.03;;;;;;;8.85;65.60;102479.94;4967557;28;20513;-90
2022/05/09 01:38:39;;;;;;;12.32;4.53;;;;;;;8.76;65.41;102474.78;4982883;28;20363;-89
2022/05/09 01:41:05;;;;;;;12.90;4.60;;;;;;;8.75;66.20;102474.81;4975362;28;20031;-89
2022/05/09 01:43:38;;;;;;;11.68;4.65;;;;;;;8.77;66.30;102481.84;4975187;28;20089;-88
2022/05/09 01:46:05;;;;;;;12.65;4.60;;;;;;;8.76;66.39;102471.25;4987959;28;20038;-91
2022/05/09 01:51:16;;;;;;;10.65;4.32;;;;;;;8.73;66.33;102485.44;4973410;28;20453;-90
2022/05/09 01:53:45;;;;;;;9.57;4.53;;;;;;;8.68;66.82;102480.22;4975348;28;20110;-90
2022/05/09 01:56:12;;;;;;;14.70;4.97;;;;;;;8.60;67.14;102483.91;4978343;28;20018;-89
2022/05/09 01:58:37;;;;;;;9.23;4.32;;;;;;;8.59;67.39;102484.81;4971147;28;20418;-89
2022/05/09 02:01:03;;;;;;;10.57;4.38;;;;;;;8.49;67.26;102481.44;4973985;28;20040;-89
2022/05/09 02:03:29;;;;;;;11.00;4.60;;;;;;;8.46;67.63;102484.13;4975628;28;20437;-89
2022/05/09 02:05:54;;;;;;;10.07;4.25;;;;;;;8.38;67.73;102486.03;4969066;28;20053;-90
2022/05/09 02:08:19;;;;;;;10.50;4.72;;;;;;;8.40;68.15;102486.88;4978346;28;20027;-90
2022/05/09 02:10:44;;;;;;;10.85;4.72;;;;;;;8.35;68.10;102486.91;4976526;28;20117;-90
2022/05/09 02:13:10;;;;;;;10.13;4.50;;;;;;;8.39;68.30;102482.47;4977885;28;20473;-90
2022/05/09 02:15:35;;;;;;;9.85;4.60;;;;;;;8.36;68.33;102479.81;4970895;28;20027;-89
2022/05/09 02:18:01;;;;;;;12.45;4.47;;;;;;;8.29;68.40;102475.53;4971578;28;20400;-89
2022/05/09 02:20:26;;;;;;;11.43;4.90;;;;;;;8.23;68.48;102473.84;4985173;28;20069;-89
2022/05/09 02:22:51;;;;;;;10.57;4.90;;;;;;;8.22;69.41;102472.09;4973986;28;20058;-89
2022/05/09 02:25:33;;;;;;;11.02;5.22;;;;;;;8.20;68.81;102468.59;4970539;28;20023;-90
2022/05/09 02:28:00;;;;;;;9.65;4.78;;;;;;;8.18;69.30;102473.91;4969434;28;20066;-90
2022/05/09 02:30:26;;;;;;;11.68;4.78;;;;;;;8.08;69.42;102466.13;4956090;28;20105;-89
2022/05/09 02:32:52;;;;;;;9.82;5.00;;;;;;;8.08;69.37;102468.78;4951081;28;20046;-90
2022/05/09 02:35:18;;;;;;;6.97;4.35;;;;;;;8.04;69.35;102462.63;4973911;28;20069;-89
2022/05/09 02:37:44;;;;;;;13.30;5.70;;;;;;;8.00;69.68;102452.97;4986008;28;20113;-90
2022/05/09 02:40:10;;;;;;;11.82;4.80;;;;;;;8.05;69.57;102461.72;4975919;28;20026;-90
2022/05/09 02:42:35;;;;;;;9.40;4.50;;;;;;;8.04;69.42;102462.63;4975775;28;20019;-90
2022/05/09 02:45:01;;;;;;;11.98;4.90;;;;;;;8.01;69.72;102460.03;4980406;28;20555;-90
2022/05/09 02:47:26;;;;;;;11.98;4.80;;;;;;;7.98;69.91;102457.41;4985390;28;20027;-89
2022/05/09 02:49:52;;;;;;;9.20;4.72;;;;;;;7.93;70.29;102457.47;4975983;28;20446;-90
2022/05/09 02:52:17;;;;;;;10.07;4.43;;;;;;;7.92;70.30;102450.44;4968294;28;20026;-90
2022/05/09 02:54:44;;;;;;;8.13;4.50;;;;;;;7.90;70.39;102459.28;4981496;28;20023;-90
2022/05/09 02:57:09;;;;;;;12.75;4.85;;;;;;;7.88;69.99;102456.66;4969673;28;20037;-90
2022/05/09 02:59:34;;;;;;;10.65;4.47;;;;;;;7.85;70.09;102456.69;4969400;28;20022;-89
2022/05/09 03:02:01;;;;;;;12.10;4.70;;;;;;;7.86;70.26;102450.53;4961340;28;20081;-90
2022/05/09 03:04:39;;;;;;;12.95;4.80;;;;;;;7.86;70.38;102444.31;4971352;28;20066;-89
2022/05/09 03:07:06;;;;;;;12.05;4.43;;;;;;;7.72;70.66;102440.09;4963655;28;20046;-90
2022/05/09 03:09:32;;;;;;;11.45;4.90;;;;;;;7.73;70.80;102448.91;4970142;28;20030;-89
2022/05/09 03:11:57;;;;;;;7.28;4.25;;;;;;;7.67;70.71;102451.66;4969164;28;20027;-90
2022/05/09 03:14:22;;;;;;;11.40;4.70;;;;;;;7.57;71.05;102452.69;4979186;28;20034;-89
2022/05/09 03:16:47;;;;;;;10.50;5.25;;;;;;;7.47;71.40;102447.47;4971098;28;20363;-89
2022/05/09 03:19:13;;;;;;;13.38;4.97;;;;;;;7.48;71.36;102454.56;4970559;28;20405;-90
2022/05/09 03:21:38;;;;;;;13.95;5.40;;;;;;;7.45;71.78;102457.25;4975383;28;20027;-90
2022/05/09 03:24:04;;;;;;;10.13;5.15;;;;;;;7.40;72.10;102447.59;4986181;28;20034;-90
2022/05/09 03:26:30;;;;;;;12.43;5.35;;;;;;;7.40;72.14;102455.56;4981805;28;20042;-89
2022/05/09 03:28:55;;;;;;;13.85;5.43;;;;;;;7.39;72.17;102456.41;4964764;28;20035;-89
2022/05/09 03:31:21;;;;;;;12.05;5.53;;;;;;;7.35;72.25;102450.28;4973809;28;20035;-89
2022/05/09 03:33:46;;;;;;;10.88;5.07;;;;;;;7.27;72.66;102444.19;4976903;28;20106;-90
2022/05/09 03:36:11;;;;;;;14.50;5.20;;;;;;;7.30;72.37;102446.81;4969388;28;20054;-90
2022/05/09 03:38:38;;;;;;;11.55;5.57;;;;;;;7.28;72.58;102450.41;4978004;28;20031;-90
2022/05/09 03:41:03;;;;;;;11.68;5.18;;;;;;;7.27;72.64;102440.66;4966165;28;20051;-90
2022/05/09 03:43:29;;;;;;;11.95;5.40;;;;;;;7.30;72.36;102444.16;4966388;28;20468;-90
2022/05/09 03:45:56;;;;;;;11.68;5.43;;;;;;;7.31;72.60;102450.34;4969396;28;20039;-90
2022/05/09 03:48:21;;;;;;;13.75;5.18;;;;;;;7.30;72.73;102446.81;4969464;28;20109;-90
2022/05/09 03:50:47;;;;;;;11.57;5.05;;;;;;;7.25;72.86;102435.41;4972670;28;20476;-90
2022/05/09 03:53:12;;;;;;;12.18;4.93;;;;;;;7.22;72.85;102436.31;4983521;28;20593;-90
2022/05/09 03:55:37;;;;;;;11.27;5.20;;;;;;;7.23;72.98;102447.78;4973785;28;20089;-90
2022/05/09 03:58:03;;;;;;;8.77;5.68;;;;;;;7.18;73.04;102433.72;4969028;28;20030;-90
2022/05/09 04:00:32;;;;;;;10.40;5.35;;;;;;;7.19;73.27;102438.09;4975560;28;20622;-90
2022/05/09 04:02:58;;;;;;;13.15;5.10;;;;;;;7.18;73.13;102441.66;4987061;28;20402;-90
2022/05/09 04:05:23;;;;;;;15.27;5.05;;;;;;;7.17;73.17;102446.06;4967531;28;20030;-89
2022/05/09 04:07:52;;;;;;;13.60;5.45;;;;;;;7.17;73.42;102435.47;4973506;28;20046;-90
2022/05/09 04:10:27;;;;;;;11.90;5.75;;;;;;;7.17;73.05;102445.22;4962476;28;20038;-90
2022/05/09 04:12:52;;;;;;;12.60;5.35;;;;;;;7.12;73.21;102447.91;4982794;28;20023;-89
2022/05/09 04:18:03;;;;;;;;;;;;;;;7.20;70.60;102445.19;4971762;28;20093;-89
2022/05/09 04:20:29;;;;;;;9.60;5.22;;;;;;;7.01;72.96;102420.66;4960761;28;19922;-90
2022/05/09 04:22:56;;;;;;;12.50;5.18;;;;;;;7.05;73.40;102435.63;4972303;28;20027;-90
2022/05/09 04:25:22;;;;;;;12.35;5.55;;;;;;;7.05;73.63;102440.03;4973073;28;20046;-90
2022/05/09 04:27:48;;;;;;;12.98;5.75;;;;;;;7.04;74.06;102436.53;4973650;28;20089;-86
2022/05/09 04:30:13;;;;;;;15.15;5.85;;;;;;;6.98;74.28;102437.47;4967628;28;20027;-89
2022/05/09 04:32:40;;;;;;;13.38;5.45;;;;;;;6.97;74.23;102438.34;4970145;28;20385;-89
2022/05/09 04:35:11;;;;;;;9.95;6.47;;;;;;;7.03;74.49;102433.91;4968434;28;20031;-88
2022/05/09 04:37:37;;;;;;;15.75;6.07;;;;;;;7.04;74.42;102433.88;4982982;28;20027;-89
2022/05/09 04:40:04;;;;;;;15.50;5.88;;;;;;;7.10;74.26;102440.84;4970036;28;20027;-88
2022/05/09 04:42:29;;;;;;;10.35;6.30;;;;;;;7.08;74.31;102440.00;4959434;28;20038;-88
2022/05/09 04:44:54;;;;;;;11.52;6.00;;;;;;;7.09;74.31;102433.81;4971507;28;20405;-89
2022/05/09 04:47:19;;;;;;;14.00;6.20;;;;;;;7.14;74.41;102432.00;4972686;28;20037;-88
2022/05/09 04:49:44;;;;;;;11.68;5.90;;;;;;;7.16;74.35;102440.81;4971123;28;20030;-88
2022/05/09 04:52:10;;;;;;;15.77;6.78;;;;;;;7.16;74.25;102440.81;4967194;28;20373;-90
2022/05/09 04:54:35;;;;;;;12.52;5.88;;;;;;;7.22;74.25;102435.44;4969116;28;20023;-89
2022/05/09 04:57:00;;;;;;;14.50;6.15;;;;;;;7.18;74.39;102436.34;4968024;28;20580;-90
2022/05/09 04:59:25;;;;;;;14.40;6.57;;;;;;;7.22;74.26;102430.13;4965118;28;20031;-91
2022/05/09 05:01:51;;;;;;;13.35;6.22;;;;;;;7.26;74.33;102423.03;4971483;28;20468;-92
2022/05/09 05:04:17;;;;;;;11.88;5.97;;;;;;;7.31;74.32;102421.19;4958666;28;20014;-90
2022/05/09 05:06:43;;;;;;;14.82;6.63;;;;;;;7.37;74.19;102416.72;4967799;28;20022;-92
2022/05/09 05:09:09;;;;;;;14.73;6.07;;;;;;;7.46;74.02;102424.53;4955835;28;20038;-92
2022/05/09 05:11:34;;;;;;;11.95;6.00;;;;;;;7.48;73.99;102416.56;4962183;28;20037;-92
2022/05/09 05:13:59;;;;;;;11.75;6.32;;;;;;;7.58;73.76;102426.16;4951005;28;20085;-91
2022/05/09 05:16:59;;;;;;;16.00;6.38;;;;;;;7.67;73.43;102414.56;4967835;28;20023;-92
2022/05/09 05:19:10;;;;;;;14.25;6.70;;;;;;;7.76;73.15;102408.25;4962962;28;20534;-93
2022/05/09 05:21:35;;;;;;;18.00;6.75;;;;;;;7.84;73.08;102404.59;4966145;28;20027;-93
2022/05/09 05:24:00;;;;;;;14.30;6.47;;;;;;;8.02;72.86;102418.47;4964142;28;20384;-94
2022/05/09 05:26:26;;;;;;;17.10;6.43;;;;;;;8.05;72.71;102413.13;4970651;28;20050;-92
2022/05/09 05:28:51;;;;;;;12.18;5.93;;;;;;;8.19;72.07;102414.69;4966388;28;20085;-92
2022/05/09 05:31:21;;;;;;;16.73;6.63;;;;;;;8.34;72.43;102428.59;4976031;28;20072;-93
2022/05/09 05:33:46;;;;;;;11.88;6.38;;;;;;;8.52;71.17;102427.44;4965664;28;20039;-93
2022/05/09 05:36:14;;;;;;;13.98;6.47;;;;;;;8.64;70.96;102425.44;4976549;28;20049;-93
2022/05/09 05:38:39;;;;;;;16.98;7.50;;;;;;;8.73;70.28;102421.75;4968341;28;20118;-94
2022/05/09 05:41:04;;;;;;;22.65;7.03;;;;;;;8.94;69.54;102424.00;4976959;28;20859;-93
2022/05/09 05:43:29;;;;;;;16.17;6.63;;;;;;;9.11;68.64;102421.03;4971712;28;20076;-92
2022/05/09 05:45:56;;;;;;;15.40;6.38;;;;;;;9.31;67.97;102425.94;4969418;28;20042;-93
2022/05/09 05:48:21;;;;;;;11.55;6.32;;;;;;;9.46;67.56;102420.31;4966301;28;20122;-92
2022/05/09 05:50:47;;;;;;;16.02;6.47;;;;;;;9.67;66.96;102424.28;4965504;28;20117;-91
2022/05/09 05:53:12;;;;;;;11.43;6.65;;;;;;;9.90;66.84;102426.41;4968831;28;20206;-93
2022/05/09 05:55:37;;;;;;;14.77;7.10;;;;;;;10.02;65.20;102424.41;4970680;28;20050;-91
2022/05/09 05:58:03;;;;;;;12.68;7.15;;;;;;;10.21;65.28;102426.59;4971738;28;20134;-96
2022/05/09 06:00:28;;;;;;;17.88;6.97;;;;;;;10.38;64.89;102423.56;4976453;28;20030;-94
2022/05/09 06:02:54;;;;;;;14.85;6.65;;;;;;;10.44;64.03;102422.50;4952535;28;20464;-92
2022/05/09 06:05:20;;;;;;;14.93;6.25;;;;;;;10.71;63.99;102426.28;4971042;28;20344;-94
2022/05/09 06:07:52;;;;;;;14.93;6.70;;;;;;;10.89;63.33;102424.91;4977584;28;20155;-96
2022/05/09 06:10:18;;;;;;;15.02;6.88;;;;;;;11.12;62.68;102422.50;4978584;28;20110;-93
2022/05/09 06:12:44;;;;;;;14.77;6.63;;;;;;;11.29;61.72;102422.03;4954762;28;20062;-94
2022/05/09 06:15:25;;;;;;;11.00;5.97;;;;;;;11.48;61.11;102425.88;4963549;28;20054;-89
2022/05/09 06:17:51;;;;;;;13.68;6.88;;;;;;;11.65;60.65;102427.16;4964961;28;20329;-95
2022/05/09 06:20:17;;;;;;;13.63;6.75;;;;;;;11.82;60.25;102424.84;4989610;28;20102;-91
2022/05/09 06:22:43;;;;;;;18.23;6.93;;;;;;;12.11;59.81;102431.13;4970572;28;20077;-92
2022/05/09 06:25:12;;;;;;;14.77;7.32;;;;;;;12.21;59.23;102427.25;4974036;28;20019;-95
2022/05/09 06:27:38;;;;;;;13.02;6.60;;;;;;;12.37;59.01;102419.56;4967599;28;20125;-92
2022/05/09 06:30:06;;;;;;;15.00;6.45;;;;;;;12.64;59.04;102418.66;4971965;28;20094;-93
2022/05/09 06:32:31;;;;;;;13.05;6.80;;;;;;;12.86;57.44;102415.22;4970646;28;20026;-92
2022/05/09 06:34:57;;;;;;;15.55;7.22;;;;;;;13.01;56.29;102419.16;4972168;28;20045;-91
2022/05/09 06:37:24;;;;;;;14.20;7.35;;;;;;;13.15;56.40;102408.84;4956995;28;20117;-93
2022/05/09 06:39:52;;;;;;;14.02;7.28;;;;;;;13.29;54.95;102408.34;4973318;28;20031;-93
2022/05/09 06:42:17;;;;;;;15.13;7.68;;;;;;;13.39;53.86;102410.63;4972953;28;20039;-94
2022/05/09 06:44:42;;;;;;;14.02;6.88;;;;;;;13.63;53.58;102405.28;4972285;28;20382;-95
2022/05/09 06:52:21;;;;;;;13.90;7.28;;;;;;;14.00;51.87;102411.84;5020738;23;20062;-95
2022/05/09 06:54:47;;;;;;;14.57;7.53;;;;;;;14.12;52.77;102400.63;5009555;28;20037;-95
2022/05/09 06:57:12;;;;;;;15.75;7.40;;;;;;;14.28;52.42;102407.09;5015372;28;20037;-91
2022/05/09 06:59:37;;;;;;;14.52;7.35;;;;;;;14.48;52.38;102411.63;5010084;28;20484;-88
2022/05/09 07:02:03;;;;;;;13.15;6.82;;;;;;;14.80;52.99;102410.28;5019853;28;20120;-92
2022/05/09 07:04:28;;;;;;;14.00;7.35;;;;;;;15.04;53.26;102402.94;4999113;28;20041;-93
2022/05/09 07:06:54;;;;;;;17.38;7.35;;;;;;;15.49;53.26;102408.97;4993498;28;20463;-94
2022/05/09 07:09:19;;;;;;;15.18;6.97;;;;;;;15.83;50.57;102401.09;5011489;28;20080;-93
2022/05/09 07:11:44;;;;;;;17.80;6.70;;;;;;;16.28;50.85;102405.16;4992118;28;20073;-93
2022/05/09 07:14:10;;;;;;;17.10;7.22;;;;;;;16.62;48.67;102406.13;4998246;28;20053;-94
2022/05/09 07:16:36;;;;;;;11.60;6.75;;;;;;;16.97;47.28;102401.66;5011953;28;20387;-94
2022/05/09 07:19:03;;;;;;;11.82;6.68;;;;;;;17.30;47.12;102388.19;5012468;28;20122;-94
2022/05/09 07:21:29;;;;;;;10.07;6.45;;;;;;;17.74;47.40;102401.03;5011204;28;20040;-93
2022/05/09 07:23:54;;;;;;;13.63;7.50;;;;;;;18.09;44.73;102401.72;4994104;28;20364;-93
2022/05/09 07:26:20;;;;;;;14.15;6.85;;;;;;;18.63;43.19;102406.63;4993458;28;20026;-94
2022/05/09 07:28:45;;;;;;;15.73;6.75;;;;;;;18.78;42.52;102400.34;5006310;28;20068;-93
2022/05/09 07:31:10;;;;;;;12.07;7.10;;;;;;;18.86;41.08;102406.16;5017781;28;20033;-93
2022/05/09 07:33:36;;;;;;;9.63;6.15;;;;;;;19.23;41.92;102408.38;4995355;28;20612;-93
2022/05/09 07:36:03;;;;;;;14.38;7.22;;;;;;;19.50;40.56;102405.78;5019956;28;20174;-93
2022/05/09 07:38:29;;;;;;;13.35;6.25;;;;;;;19.88;41.01;102398.81;5008214;28;20527;-88
2022/05/09 07:40:54;;;;;;;13.70;7.07;;;;;;;20.30;38.98;102396.91;5006955;28;20029;-89
2022/05/09 07:43:23;;;;;;;13.50;6.93;;;;;;;20.63;38.71;102401.91;4998233;28;20044;-90
2022/05/09 07:45:51;;;;;;;13.48;6.13;;;;;;;21.04;38.33;102397.31;5008634;28;20033;-91
2022/05/09 07:48:18;;;;;;;10.98;6.68;;;;;;;21.39;37.13;102392.09;5004762;28;20034;-91
2022/05/09 07:50:44;;;;;;;10.48;5.88;;;;;;;21.67;36.82;102395.50;5009247;28;20220;-91
2022/05/09 07:53:14;;;;;;;11.98;6.70;;;;;;;22.02;36.15;102399.19;5007311;28;20018;-93
2022/05/09 07:55:42;;;;;;;10.05;6.10;;;;;;;22.44;34.94;102398.78;5009455;28;20049;-92
2022/05/09 07:58:09;;;;;;;16.63;6.88;;;;;;;22.95;34.33;102402.06;4993760;28;20026;-91
2022/05/09 08:00:35;;;;;;;14.80;6.85;;;;;;;23.49;33.08;102397.75;5009299;28;20140;-92
2022/05/09 08:03:00;;;;;;;13.88;6.70;;;;;;;23.85;32.68;102394.78;5006030;28;20088;-93
2022/05/09 08:05:26;;;;;;;8.88;6.00;;;;;;;24.38;30.68;102406.78;5009701;28;20431;-92
2022/05/09 08:07:51;;;;;;;8.95;5.68;;;;;;;24.58;32.35;102398.63;5009031;28;20022;-92
2022/05/09 08:10:16;;;;;;;12.25;6.22;;;;;;;24.95;31.58;102400.00;5009340;28;20053;-91
2022/05/09 08:12:42;;;;;;;11.15;5.15;;;;;;;25.29;30.06;102395.19;5004778;28;20116;-91
2022/05/09 08:15:11;;;;;;;12.52;5.68;;;;;;;25.42;29.16;102392.25;5009521;28;20521;-91
2022/05/09 08:17:36;;;;;;;12.13;5.55;;;;;;;25.89;28.63;102396.13;5008890;28;20586;-91
2022/05/09 08:20:03;;;;;;;8.98;5.40;;;;;;;26.38;28.18;102401.63;5010075;28;20022;-92
2022/05/09 08:22:31;;;;;;;10.50;5.05;;;;;;;26.78;27.95;102398.75;4988487;28;20054;-91
2022/05/09 08:24:57;;;;;;;13.52;5.63;;;;;;;27.00;27.44;102390.22;5009372;28;20038;-91
2022/05/09 08:27:23;;;;;;;11.85;5.47;;;;;;;27.39;27.17;102389.25;5009346;28;20032;-91
2022/05/09 08:29:51;;;;;;;12.45;6.00;;;;;;;27.79;27.68;102392.50;5009173;28;20093;-90
2022/05/09 08:32:16;;;;;;;10.88;5.50;;;;;;;27.99;24.86;102395.13;5004800;28;20049;-91
2022/05/09 08:34:42;;;;;;;7.80;4.72;;;;;;;28.18;25.46;102400.47;5009268;28;20476;-91
2022/05/09 08:37:07;;;;;;;10.95;5.40;;;;;;;28.61;25.34;102401.56;5008828;28;20125;-91
2022/05/09 08:39:32;;;;;;;8.95;5.47;;;;;;;28.83;24.98;102396.56;5008359;28;20026;-91
2022/05/09 08:42:01;;;;;;;10.52;4.85;;;;;;;28.86;24.28;102399.00;5000915;28;20498;-91
2022/05/09 08:44:42;;;;;;;9.63;5.68;;;;;;;29.25;25.85;102400.28;5006977;28;20488;-91
2022/05/09 08:47:40;;;;;;;11.32;5.65;;;;;;;29.31;25.59;102401.53;5016674;28;20475;-91
2022/05/09 08:50:14;;;;;;;7.63;4.85;;;;;;;29.15;24.45;102399.56;5007886;28;20578;-91
2022/05/09 08:52:50;;;;;;;10.82;5.28;;;;;;;29.88;23.29;102395.44;5006316;28;20058;-91
2022/05/09 08:55:40;;;;;;;10.90;4.97;;;;;;;30.43;24.60;102392.09;5011342;28;20049;-92
2022/05/09 08:58:21;;;;;;;11.20;4.78;;;;;;;30.43;23.26;102394.84;4992978;28;20427;-92
2022/05/09 09:00:52;;;;;;;7.35;4.80;;;;;;;30.94;23.77;102392.78;5007921;28;20029;-91
2022/05/09 09:03:37;;;;;;;7.95;4.70;;;;;;;31.16;23.31;102399.44;5008927;28;20201;-91
2022/05/09 09:06:16;;;;;;;9.40;4.70;;;;;;;31.38;22.71;102387.69;5009365;28;20480;-92
2022/05/09 09:09:00;;;;;;;11.70;4.72;;;;;;;31.91;21.65;102386.09;5007560;28;20104;-91
2022/05/09 09:11:52;;;;;;;9.82;4.60;;;;;;;32.80;22.11;102383.66;5006369;28;20501;-91
2022/05/09 09:14:26;;;;;;;9.13;4.80;;;;;;;32.35;21.38;102384.53;4993648;28;20471;-92
2022/05/09 09:17:14;;;;;;;10.57;4.40;;;;;;;32.59;20.31;102373.34;5007788;28;20276;-91
2022/05/09 09:19:55;;;;;;;10.52;4.10;;;;;;;32.36;21.39;102380.78;4986728;28;20216;-92
2022/05/09 09:22:31;;;;;;;9.43;4.38;;;;;;;33.12;20.49;102382.47;4995876;28;20080;-91
2022/05/09 09:25:27;;;;;;;8.90;4.50;;;;;;;33.67;19.77;102374.75;5007490;28;20033;-91
2022/05/09 09:27:58;;;;;;;6.10;4.00;;;;;;;33.83;18.86;102370.91;5007710;28;20546;-91
2022/05/09 09:30:25;;;;;;;7.13;4.30;;;;;;;34.22;18.20;102369.63;5008430;28;20415;-92
2022/05/09 09:33:03;;;;;;;7.65;3.70;;;;;;;34.72;19.41;102359.44;4998281;28;20463;-91
2022/05/09 09:35:55;;;;;;;6.13;3.30;;;;;;;34.70;17.26;102367.94;5007962;28;20032;-91
2022/05/09 09:38:32;;;;;;;5.05;2.70;;;;;;;34.42;17.35;102360.44;4989476;28;20038;-91
2022/05/09 09:41:16;;;;;;;11.55;4.20;;;;;;;34.88;18.45;102370.19;5003190;28;20096;-91
2022/05/09 09:43:42;;;;;;;7.22;3.70;;;;;;;34.63;17.71;102361.50;5000350;28;20038;-91
2022/05/09 09:46:07;;;;;;;7.15;3.58;;;;;;;34.50;16.99;102365.03;4996981;28;20022;-89
2022/05/09 09:48:34;;;;;;;7.60;3.70;;;;;;;34.42;17.09;102362.38;5008038;28;20057;-91
2022/05/09 09:51:06;;;;;;;8.90;3.92;;;;;;;34.66;17.31;102369.41;5000669;28;20182;-92
2022/05/09 09:53:48;;;;;;;12.18;3.92;;;;;;;35.17;18.15;102364.44;4985326;28;20434;-91
2022/05/09 09:56:22;;;;;;;9.10;3.85;;;;;;;35.53;17.51;102356.94;4992718;28;20022;-91
2022/05/09 09:58:55;;;;;;;6.50;3.65;;;;;;;35.74;16.75;102358.72;5007095;28;20029;-92
2022/05/09 10:01:24;;;;;;;9.40;3.95;;;;;;;35.77;16.14;102359.16;5005748;28;20046;-91
2022/05/09 10:04:13;;;;;;;9.63;4.00;;;;;;;36.01;16.81;102348.59;5008939;28;20033;-92
2022/05/09 10:07:04;;;;;;;17.63;5.82;;;;;;;35.48;17.41;102356.72;5011096;28;20026;-91
2022/05/09 10:09:53;;;;;;;10.60;3.80;;;;;;;35.04;16.62;102350.53;5011598;28;20037;-91
2022/05/09 10:12:26;;;;;;;9.13;4.18;;;;;;;35.49;17.08;102342.66;5007729;28;20033;-91
2022/05/09 10:14:52;;;;;;;6.72;3.90;;;;;;;36.03;16.61;102336.22;5011209;28;20030;-92
2022/05/09 10:17:21;;;;;;;7.38;4.20;;;;;;;36.50;15.77;102339.91;5007989;28;20080;-91
2022/05/09 10:19:47;;;;;;;9.13;4.05;;;;;;;37.20;15.19;102342.13;5012172;28;20026;-92
2022/05/09 10:25:10;;;;;;;7.68;3.53;;;;;;;38.13;14.67;102326.69;5011895;28;20400;-91
2022/05/09 10:27:37;;;;;;;8.55;3.55;;;;;;;38.91;14.15;102321.72;5011494;28;20096;-91
2022/05/09 10:30:30;;;;;;;7.38;3.80;;;;;;;39.59;15.38;102318.72;5010685;28;20344;-91
2022/05/09 10:33:22;;;;;;;7.05;3.92;;;;;;;39.66;14.56;102321.41;4993505;28;20306;-91
2022/05/09 10:35:53;;;;;;;7.72;4.22;;;;;;;39.88;13.91;102310.59;4996235;28;20107;-91
2022/05/09 10:38:23;;;;;;;6.20;3.65;;;;;;;40.35;12.92;102317.13;5011496;28;20030;-91
2022/05/09 10:41:03;;;;;;;7.95;4.10;;;;;;;40.50;13.66;102316.63;5004923;28;20036;-93
2022/05/09 10:43:33;;;;;;;6.10;4.63;;;;;;;40.57;12.54;102311.81;5007411;28;20431;-92
2022/05/09 10:46:04;;;;;;;8.07;4.22;;;;;;;40.21;12.48;102315.66;4982312;28;20484;-92
2022/05/09 10:48:41;;;;;;;8.75;3.78;;;;;;;39.69;13.56;102307.88;5010361;28;20484;-92
2022/05/09 10:51:16;;;;;;;9.48;4.00;;;;;;;39.74;13.66;102304.38;5001005;28;20046;-92
2022/05/09 10:53:55;;;;;;;7.25;4.10;;;;;;;39.69;13.89;102298.66;5007218;28;20135;-93
2022/05/09 10:56:28;;;;;;;8.95;4.22;;;;;;;40.35;13.00;102308.75;5010692;28;20049;-93
2022/05/09 10:59:09;;;;;;;7.65;4.28;;;;;;;40.90;13.18;102307.53;5010268;28;20033;-93
2022/05/09 11:01:45;;;;;;;7.57;4.40;;;;;;;41.03;13.72;102308.13;4996414;28;20304;-92
2022/05/09 11:04:13;;;;;;;9.10;4.45;;;;;;;40.99;11.85;102301.34;4995325;28;20037;-93
2022/05/09 11:07:00;;;;;;;5.88;4.40;;;;;;;40.36;12.81;102296.50;5009918;28;20053;-91
2022/05/09 11:09:56;;;;;;;10.13;4.82;;;;;;;40.21;13.11;102299.75;5010635;28;20436;-92
2022/05/09 11:12:41;;;;;;;7.43;4.50;;;;;;;40.32;12.71;102298.09;4996991;28;20113;-92
2022/05/09 11:15:44;;;;;;;12.77;4.43;;;;;;;40.73;13.43;102290.69;5010370;28;20041;-92
2022/05/09 11:18:24;;;;;;;10.32;4.03;;;;;;;40.08;12.66;102292.44;5004562;28;20026;-93
2022/05/09 11:21:27;;;;;;;7.30;4.40;;;;;;;40.83;13.08;102293.69;4999937;28;20037;-93
2022/05/09 11:23:53;;;;;;;;;;;;;;;42.05;13.08;102275.69;5008192;28;20445;-92
2022/05/09 11:26:34;;;;;;;8.50;4.53;;;;;;;41.09;12.96;102283.94;5009902;28;19917;-91
2022/05/09 11:29:21;;;;;;;6.28;3.80;;;;;;;40.57;12.68;102281.97;5010217;28;20029;-92
2022/05/09 11:32:09;;;;;;;7.28;4.15;;;;;;;40.77;13.55;102275.16;5008001;28;20037;-92
2022/05/09 11:34:59;;;;;;;6.07;3.50;;;;;;;41.51;13.05;102264.09;5009052;28;20045;-92
2022/05/09 11:37:42;;;;;;;7.95;4.03;;;;;;;41.45;12.21;102268.75;5010037;28;20022;-93
2022/05/09 11:40:21;;;;;;;7.78;4.35;;;;;;;41.71;12.22;102261.69;5005657;28;20039;-91
2022/05/09 11:43:29;;;;;;;6.50;4.25;;;;;;;41.81;12.53;102251.84;5008966;28;20069;-91
2022/05/09 11:46:13;;;;;;;6.85;4.30;;;;;;;41.61;12.40;102243.91;5009193;28;20104;-92
2022/05/09 11:48:42;;;;;;;7.32;3.80;;;;;;;41.30;12.58;102255.34;5009103;28;20856;-93
2022/05/09 11:51:40;;;;;;;7.28;3.85;;;;;;;42.09;12.34;102250.88;4997036;28;20059;-92
2022/05/09 11:54:13;;;;;;;8.57;4.28;;;;;;;41.64;12.02;102241.44;4993250;28;20172;-92